createdAt,value
2018-10-16T00:00:21.915Z,92.70
2018-10-16T00:03:26.083Z,92.40
2018-10-16T00:06:30.251Z,92.80
2018-10-16T00:09:34.413Z,92.90
2018-10-16T00:12:38.843Z,93.10
2018-10-16T00:15:43.002Z,93.10
2018-10-16T00:18:47.151Z,93.10
2018-10-16T00:21:51.312Z,93.20
2018-10-16T00:24:55.467Z,93.10
2018-10-16T00:27:59.641Z,92.90
2018-10-16T00:31:03.802Z,92.60
2018-10-16T00:34:08.395Z,92.70
2018-10-16T00:37:12.546Z,93.00
2018-10-16T00:40:16.709Z,93.00
2018-10-16T00:43:20.882Z,92.90
2018-10-16T00:46:25.039Z,92.60
2018-10-16T00:49:29.200Z,93.00
2018-10-16T00:52:33.358Z,93.30
2018-10-16T00:55:37.516Z,93.40
2018-10-16T00:58:41.659Z,93.50
2018-10-16T01:01:45.826Z,93.30
2018-10-16T01:04:50.968Z,93.20
2018-10-16T01:07:55.087Z,93.20
2018-10-16T01:10:59.283Z,93.10
2018-10-16T01:14:03.583Z,93.40
2018-10-16T01:17:07.744Z,93.40
2018-10-16T01:20:13.306Z,93.10
2018-10-16T01:23:17.482Z,93.60
2018-10-16T01:26:21.761Z,93.80
2018-10-16T01:29:25.874Z,93.60
2018-10-16T01:32:30.011Z,93.60
2018-10-16T01:35:34.162Z,94.10
2018-10-16T01:38:38.506Z,93.70
2018-10-16T01:41:42.718Z,93.70
2018-10-16T01:44:46.874Z,93.70
2018-10-16T01:47:51.025Z,93.70
2018-10-16T01:50:55.154Z,93.50
2018-10-16T01:53:59.357Z,93.40
2018-10-16T01:57:03.470Z,93.70
2018-10-16T02:00:09.391Z,93.50
2018-10-16T02:03:13.530Z,93.40
2018-10-16T02:06:17.693Z,93.60
2018-10-16T02:09:23.202Z,93.70
2018-10-16T02:12:27.310Z,93.60
2018-10-16T02:15:31.419Z,93.30
2018-10-16T02:18:35.518Z,93.40
2018-10-16T02:21:39.616Z,93.70
2018-10-16T02:24:43.732Z,93.90
2018-10-16T02:27:47.859Z,93.70
2018-10-16T02:30:52.010Z,93.70
2018-10-16T02:33:56.119Z,93.90
2018-10-16T02:37:00.234Z,93.90
2018-10-16T02:40:05.075Z,93.90
2018-10-16T02:43:09.162Z,94.00
2018-10-16T02:46:13.318Z,94.10
2018-10-16T02:49:17.448Z,94.40
2018-10-16T02:52:21.598Z,93.80
2018-10-16T02:55:25.795Z,93.80
2018-10-16T02:58:29.930Z,93.90
2018-10-16T03:01:34.091Z,94.10
2018-10-16T03:04:38.218Z,93.80
2018-10-16T03:07:42.350Z,93.80
2018-10-16T03:10:46.476Z,93.90
2018-10-16T03:13:50.596Z,94.00
2018-10-16T03:16:54.728Z,94.00
2018-10-16T03:19:58.853Z,93.90
2018-10-16T03:23:02.964Z,94.00
2018-10-16T03:26:07.074Z,94.10
2018-10-16T03:29:11.706Z,94.00
2018-10-16T03:32:15.817Z,94.30
2018-10-16T03:35:19.988Z,94.30
2018-10-16T03:38:24.096Z,94.40
2018-10-16T03:41:28.229Z,94.30
2018-10-16T03:44:32.340Z,94.30
2018-10-16T03:47:36.506Z,94.00
2018-10-16T03:50:40.542Z,94.20
2018-10-16T03:53:44.643Z,94.10
2018-10-16T03:56:48.750Z,94.00
2018-10-16T03:59:52.839Z,94.00
2018-10-16T04:02:56.936Z,94.10
2018-10-16T04:06:01.035Z,94.00
2018-10-16T04:09:06.746Z,94.20
2018-10-16T04:12:10.843Z,94.50
2018-10-16T04:15:14.935Z,94.90
2018-10-16T04:18:19.038Z,94.50
2018-10-16T04:21:23.157Z,94.30
2018-10-16T04:24:27.261Z,94.30
2018-10-16T04:27:31.372Z,94.30
2018-10-16T04:30:35.494Z,94.20
2018-10-16T04:33:39.660Z,94.40
2018-10-16T04:36:43.758Z,94.20
2018-10-16T04:39:47.900Z,94.20
2018-10-16T04:42:52.010Z,94.20
2018-10-16T04:45:56.145Z,94.30
2018-10-16T04:49:00.258Z,94.30
2018-10-16T04:52:04.386Z,94.40
2018-10-16T04:55:08.864Z,94.40
2018-10-16T04:58:12.946Z,94.40
2018-10-16T05:01:17.086Z,94.20
2018-10-16T05:04:21.239Z,94.00
2018-10-16T05:07:25.366Z,94.10
2018-10-16T05:10:29.527Z,94.20
2018-10-16T05:13:33.664Z,94.30
2018-10-16T05:16:37.787Z,94.50
2018-10-16T05:19:41.924Z,94.50
2018-10-16T05:22:46.059Z,94.50
2018-10-16T05:25:50.160Z,94.20
2018-10-16T05:28:54.317Z,94.20
2018-10-16T05:31:58.462Z,94.20
2018-10-16T05:35:02.575Z,94.30
2018-10-16T05:38:06.794Z,94.60
2018-10-16T05:41:10.930Z,94.70
2018-10-16T05:44:15.072Z,94.70
2018-10-16T05:47:19.200Z,94.50
2018-10-16T05:50:23.314Z,94.50
2018-10-16T05:53:27.435Z,94.50
2018-10-16T05:56:31.598Z,94.30
2018-10-16T05:59:35.766Z,94.40
2018-10-16T06:02:39.882Z,94.50
2018-10-16T06:05:44.114Z,94.40
2018-10-16T06:08:48.190Z,94.30
2018-10-16T06:11:52.347Z,94.30
2018-10-16T06:14:56.465Z,94.30
2018-10-16T06:18:00.689Z,93.80
2018-10-16T06:21:04.863Z,93.30
2018-10-16T06:24:09.003Z,92.40
2018-10-16T06:27:13.260Z,92.00
2018-10-16T06:30:17.441Z,91.90
2018-10-16T06:33:23.782Z,91.40
2018-10-16T06:36:27.827Z,90.70
2018-10-16T06:39:32.803Z,89.90
2018-10-16T06:42:37.183Z,89.10
2018-10-16T06:45:41.303Z,89.80
2018-10-16T06:48:45.771Z,90.50
2018-10-16T06:51:49.590Z,91.30
2018-10-16T06:54:53.711Z,91.70
2018-10-16T06:57:57.850Z,92.10
2018-10-16T07:01:02.020Z,92.60
2018-10-16T07:04:06.986Z,92.90
2018-10-16T07:07:11.919Z,93.20
2018-10-16T07:10:15.970Z,93.20
2018-10-16T07:13:20.106Z,93.20
2018-10-16T07:16:24.235Z,93.20
2018-10-16T07:19:28.365Z,92.90
2018-10-16T07:22:32.490Z,92.80
2018-10-16T07:25:36.619Z,92.60
2018-10-16T07:28:40.739Z,92.50
2018-10-16T07:31:44.870Z,92.70
2018-10-16T07:34:49.045Z,92.40
2018-10-16T07:37:53.297Z,92.10
2018-10-16T07:40:57.389Z,92.20
2018-10-16T07:44:01.511Z,92.70
2018-10-16T07:47:06.070Z,92.30
2018-10-16T07:50:11.802Z,92.20
2018-10-16T07:53:15.948Z,91.70
2018-10-16T07:56:20.061Z,91.90
2018-10-16T07:59:24.227Z,92.00
2018-10-16T08:02:28.584Z,91.20
2018-10-16T08:05:32.767Z,91.20
2018-10-16T08:08:37.111Z,90.60
2018-10-16T08:11:45.258Z,90.70
2018-10-16T08:14:49.440Z,90.20
2018-10-16T08:17:53.610Z,90.10
2018-10-16T08:20:58.110Z,89.40
2018-10-16T08:24:02.342Z,90.00
2018-10-16T08:27:06.530Z,89.40
2018-10-16T08:30:11.354Z,89.50
2018-10-16T08:33:15.375Z,89.00
2018-10-16T08:36:19.754Z,88.60
2018-10-16T08:39:29.811Z,88.60
2018-10-16T08:42:50.196Z,88.20
2018-10-16T08:46:11.615Z,87.80
2018-10-16T08:49:33.085Z,88.40
2018-10-16T08:52:37.623Z,87.70
2018-10-16T08:55:42.366Z,86.90
2018-10-16T08:58:46.841Z,86.90
2018-10-16T09:01:50.989Z,86.70
2018-10-16T09:04:55.190Z,85.90
2018-10-16T09:07:59.322Z,86.60
2018-10-16T09:11:03.490Z,86.40
2018-10-16T09:14:08.109Z,86.40
2018-10-16T09:17:12.363Z,84.00
2018-10-16T09:20:16.602Z,82.10
2018-10-16T09:23:20.763Z,81.50
2018-10-16T09:26:24.925Z,80.10
2018-10-16T09:29:29.093Z,78.00
2018-10-16T09:32:33.492Z,77.40
2018-10-16T09:35:37.979Z,74.80
2018-10-16T09:38:42.399Z,73.40
2018-10-16T09:41:46.562Z,72.10
2018-10-16T09:44:50.723Z,69.50
2018-10-16T09:47:54.920Z,68.90
2018-10-16T09:50:59.082Z,68.50
2018-10-16T09:54:03.238Z,66.30
2018-10-16T09:57:07.390Z,66.10
2018-10-16T10:00:17.418Z,64.20
2018-10-16T10:03:21.510Z,64.50
2018-10-16T10:06:25.619Z,64.50
2018-10-16T10:09:29.736Z,64.10
2018-10-16T10:12:33.842Z,61.10
2018-10-16T10:15:37.946Z,58.50
2018-10-16T10:18:42.062Z,58.30
2018-10-16T10:21:46.179Z,59.20
2018-10-16T10:24:50.286Z,59.00
2018-10-16T10:27:54.393Z,58.20
2018-10-16T10:30:58.510Z,55.70
2018-10-16T10:34:02.626Z,55.40
2018-10-16T10:37:06.775Z,56.30
2018-10-16T10:40:10.927Z,57.00
2018-10-16T10:43:15.047Z,55.00
2018-10-16T10:46:19.167Z,52.40
2018-10-16T10:49:23.266Z,52.70
2018-10-16T10:52:27.407Z,51.40
2018-10-16T10:55:31.513Z,50.10
2018-10-16T10:58:35.605Z,47.80
2018-10-16T11:01:39.721Z,48.20
2018-10-16T11:04:43.819Z,48.50
2018-10-16T11:07:47.935Z,48.50
2018-10-16T11:10:52.034Z,47.40
2018-10-16T11:13:56.130Z,49.30
2018-10-16T11:17:00.259Z,48.20
2018-10-16T11:20:04.598Z,46.40
2018-10-16T11:23:08.702Z,46.40
2018-10-16T11:26:12.809Z,45.50
2018-10-16T11:29:16.935Z,45.50
2018-10-16T11:32:21.103Z,45.40
2018-10-16T11:35:25.198Z,44.30
2018-10-16T11:38:29.319Z,44.00
2018-10-16T11:41:33.418Z,44.80
2018-10-16T11:44:37.535Z,44.50
2018-10-16T11:47:41.686Z,43.00
2018-10-16T11:50:45.785Z,44.00
2018-10-16T11:53:49.917Z,43.80
2018-10-16T11:56:54.022Z,42.60
2018-10-16T11:59:58.127Z,42.50
2018-10-16T12:03:02.230Z,43.00
2018-10-16T12:06:06.851Z,42.40
2018-10-16T12:09:11.126Z,42.00
2018-10-16T12:12:15.258Z,42.10
2018-10-16T12:15:19.368Z,42.30
2018-10-16T12:18:26.747Z,41.90
2018-10-16T12:21:30.943Z,42.40
2018-10-16T12:24:35.067Z,42.10
2018-10-16T12:27:39.172Z,41.10
2018-10-16T12:30:43.278Z,42.10
2018-10-16T12:33:47.401Z,41.60
2018-10-16T12:36:51.517Z,41.20
2018-10-16T12:39:55.683Z,42.10
2018-10-16T12:42:59.863Z,42.30
2018-10-16T12:46:03.954Z,41.20
2018-10-16T12:49:08.047Z,39.40
2018-10-16T12:52:12.179Z,41.80
2018-10-16T12:55:16.299Z,40.80
2018-10-16T12:58:20.422Z,41.50
2018-10-16T13:01:24.558Z,41.20
2018-10-16T13:04:28.685Z,41.30
2018-10-16T13:07:37.844Z,41.00
2018-10-16T13:10:41.950Z,39.10
2018-10-16T13:13:46.091Z,37.80
2018-10-16T13:16:50.235Z,36.30
2018-10-16T13:19:54.343Z,34.90
2018-10-16T13:22:58.519Z,34.50
2018-10-16T13:26:02.630Z,33.20
2018-10-16T13:29:06.767Z,33.10
2018-10-16T13:32:11.119Z,32.50
2018-10-16T13:35:16.311Z,31.70
2018-10-16T13:38:20.451Z,31.60
2018-10-16T13:41:24.594Z,31.90
2018-10-16T13:44:28.939Z,31.50
2018-10-16T13:47:33.066Z,32.40
2018-10-16T13:50:37.191Z,32.40
2018-10-16T13:53:41.326Z,31.60
2018-10-16T13:56:45.510Z,32.80
2018-10-16T13:59:49.586Z,31.50
2018-10-16T14:02:54.198Z,32.40
2018-10-16T14:05:58.343Z,33.80
2018-10-16T14:09:02.496Z,35.10
2018-10-16T14:12:07.271Z,34.90
2018-10-16T14:15:12.081Z,34.80
2018-10-16T14:18:16.230Z,35.60
2018-10-16T14:21:20.356Z,36.70
2018-10-16T14:24:24.493Z,36.70
2018-10-16T14:27:28.636Z,36.90
2018-10-16T14:30:33.116Z,37.10
2018-10-16T14:33:37.276Z,37.60
2018-10-16T14:36:41.387Z,37.90
2018-10-16T14:39:45.566Z,39.20
2018-10-16T14:42:49.714Z,39.30
2018-10-16T14:45:54.022Z,40.70
2018-10-16T14:48:58.142Z,41.50
2018-10-16T14:52:02.309Z,41.90
2018-10-16T14:55:06.618Z,42.20
2018-10-16T14:58:11.042Z,44.90
2018-10-16T15:01:15.039Z,45.60
2018-10-16T15:04:19.183Z,46.70
2018-10-16T15:07:23.329Z,48.20
2018-10-16T15:10:27.629Z,49.20
2018-10-16T15:13:31.679Z,50.50
2018-10-16T15:16:36.067Z,51.40
2018-10-16T15:19:40.197Z,53.00
2018-10-16T15:22:44.319Z,50.80
2018-10-16T15:25:48.447Z,52.00
2018-10-16T15:28:52.599Z,53.10
2018-10-16T15:31:56.780Z,54.80
2018-10-16T15:35:00.872Z,56.30
2018-10-16T15:38:05.299Z,58.40
2018-10-16T15:41:09.450Z,58.80
2018-10-16T15:44:13.721Z,60.20
2018-10-16T15:47:17.828Z,59.00
2018-10-16T15:50:21.954Z,60.00
2018-10-16T15:53:26.066Z,61.40
2018-10-16T15:56:30.206Z,62.30
2018-10-16T15:59:34.336Z,64.20
2018-10-16T16:02:38.573Z,64.70
2018-10-16T16:05:42.699Z,66.00
2018-10-16T16:08:46.834Z,67.20
2018-10-16T16:11:50.969Z,68.10
2018-10-16T16:14:55.095Z,67.90
2018-10-16T16:17:59.252Z,69.40
2018-10-16T16:21:03.338Z,70.00
2018-10-16T16:24:07.543Z,70.40
2018-10-16T16:27:11.602Z,71.60
2018-10-16T16:30:16.793Z,72.10
2018-10-16T16:33:20.818Z,72.50
2018-10-16T16:36:24.950Z,72.70
2018-10-16T16:39:29.160Z,72.90
2018-10-16T16:42:33.246Z,73.30
2018-10-16T16:45:37.365Z,73.20
2018-10-16T16:48:41.484Z,74.60
2018-10-16T16:51:45.653Z,74.60
2018-10-16T16:54:50.019Z,75.50
2018-10-16T16:57:54.235Z,75.70
2018-10-16T17:00:58.891Z,76.70
2018-10-16T17:04:03.136Z,77.60
2018-10-16T17:07:07.276Z,77.50
2018-10-16T17:10:11.508Z,78.20
2018-10-16T17:13:15.680Z,78.50
2018-10-16T17:16:19.933Z,79.00
2018-10-16T17:19:24.120Z,79.70
2018-10-16T17:22:28.265Z,79.20
2018-10-16T17:25:32.805Z,79.30
2018-10-16T17:28:37.090Z,79.40
2018-10-16T17:31:41.353Z,79.40
2018-10-16T17:34:45.454Z,80.30
2018-10-16T17:37:49.543Z,81.30
2018-10-16T17:40:53.757Z,80.70
2018-10-16T17:43:58.002Z,81.50
2018-10-16T17:47:02.491Z,81.40
2018-10-16T17:50:09.515Z,81.50
2018-10-16T17:53:13.679Z,81.50
2018-10-16T17:56:18.018Z,82.20
2018-10-16T17:59:22.239Z,82.30
2018-10-16T18:02:26.432Z,82.80
2018-10-16T18:05:30.778Z,82.90
2018-10-16T18:08:35.652Z,83.00
2018-10-16T18:11:39.796Z,83.10
2018-10-16T18:14:44.054Z,83.60
2018-10-16T18:17:48.272Z,83.60
2018-10-16T18:20:52.440Z,83.80
2018-10-16T18:23:56.618Z,84.00
2018-10-16T18:27:00.862Z,84.10
2018-10-16T18:30:05.256Z,84.30
2018-10-16T18:33:09.500Z,84.70
2018-10-16T18:36:13.642Z,84.80
2018-10-16T18:39:17.836Z,85.00
2018-10-16T18:42:22.183Z,85.20
2018-10-16T18:45:26.335Z,85.10
2018-10-16T18:48:30.590Z,85.10
2018-10-16T18:51:35.144Z,85.60
2018-10-16T18:54:39.291Z,86.00
2018-10-16T18:57:43.536Z,86.10
2018-10-16T19:00:48.046Z,86.10
2018-10-16T19:03:52.451Z,86.00
2018-10-16T19:06:56.587Z,86.20
2018-10-16T19:10:00.803Z,86.00
2018-10-16T19:13:05.190Z,85.40
2018-10-16T19:16:09.353Z,85.50
2018-10-16T19:19:13.494Z,85.30
2018-10-16T19:22:17.634Z,85.60
2018-10-16T19:25:22.172Z,85.50
2018-10-16T19:28:26.875Z,85.90
2018-10-16T19:31:31.083Z,86.20
2018-10-16T19:34:35.324Z,86.30
2018-10-16T19:37:39.775Z,86.90
2018-10-16T19:40:44.118Z,87.20
2018-10-16T19:43:48.337Z,87.40
2018-10-16T19:46:52.480Z,87.40
2018-10-16T19:49:56.671Z,87.90
2018-10-16T19:53:00.884Z,88.20
2018-10-16T19:56:05.601Z,87.90
2018-10-16T19:59:09.731Z,88.10
2018-10-16T20:02:14.109Z,88.20
2018-10-16T20:05:18.458Z,88.40
2018-10-16T20:08:22.582Z,88.50
2018-10-16T20:11:26.720Z,88.00
2018-10-16T20:14:30.874Z,87.90
2018-10-16T20:17:35.047Z,88.00
2018-10-16T20:20:39.167Z,88.10
2018-10-16T20:23:43.384Z,88.20
2018-10-16T20:26:47.542Z,88.60
2018-10-16T20:29:51.654Z,88.70
2018-10-16T20:32:55.807Z,88.90
2018-10-16T20:35:59.972Z,89.30
2018-10-16T20:39:06.286Z,89.50
2018-10-16T20:42:10.462Z,89.60
2018-10-16T20:45:14.538Z,89.60
2018-10-16T20:48:18.650Z,89.70
2018-10-16T20:51:22.786Z,90.00
2018-10-16T20:54:26.895Z,90.10
2018-10-16T20:57:31.012Z,90.20
2018-10-16T21:00:35.133Z,90.20
2018-10-16T21:03:39.246Z,90.20
2018-10-16T21:06:43.665Z,90.10
2018-10-16T21:09:47.473Z,90.20
2018-10-16T21:12:51.712Z,90.30
2018-10-16T21:15:55.841Z,90.50
2018-10-16T21:18:59.983Z,90.50
2018-10-16T21:22:04.067Z,90.60
2018-10-16T21:25:08.644Z,90.60
2018-10-16T21:28:12.749Z,90.40
2018-10-16T21:31:16.843Z,90.50
2018-10-16T21:34:20.946Z,90.50
2018-10-16T21:37:25.038Z,90.60
2018-10-16T21:40:29.143Z,90.80
2018-10-16T21:43:33.246Z,90.70
2018-10-16T21:46:37.372Z,90.80
2018-10-16T21:49:41.476Z,91.20
2018-10-16T21:52:45.592Z,90.90
2018-10-16T21:55:49.760Z,90.90
2018-10-16T21:58:53.924Z,91.00
2018-10-16T22:02:03.174Z,91.10
2018-10-16T22:05:07.320Z,91.00
2018-10-16T22:08:11.415Z,91.00
2018-10-16T22:11:15.637Z,90.80
2018-10-16T22:14:19.666Z,90.70
2018-10-16T22:17:23.794Z,90.80
2018-10-16T22:20:27.898Z,90.90
2018-10-16T22:23:31.998Z,90.90
2018-10-16T22:26:36.110Z,90.80
2018-10-16T22:29:40.254Z,90.80
2018-10-16T22:32:44.326Z,90.90
2018-10-16T22:35:48.434Z,91.00
2018-10-16T22:38:52.536Z,91.10
2018-10-16T22:41:56.636Z,90.80
2018-10-16T22:45:00.762Z,91.20
2018-10-16T22:48:05.054Z,91.40
2018-10-16T22:51:09.183Z,91.10
2018-10-16T22:54:13.310Z,91.30
2018-10-16T22:57:17.458Z,91.70
2018-10-16T23:00:21.587Z,91.50
2018-10-16T23:03:25.725Z,91.80
2018-10-16T23:06:29.843Z,91.80
2018-10-16T23:09:33.981Z,92.10
2018-10-16T23:12:38.122Z,92.10
2018-10-16T23:15:42.247Z,92.40
2018-10-16T23:18:46.403Z,92.50
2018-10-16T23:21:50.534Z,92.70
2018-10-16T23:24:54.690Z,92.50
2018-10-16T23:27:58.794Z,92.40
2018-10-16T23:31:03.042Z,92.50
2018-10-16T23:34:07.553Z,92.40
2018-10-16T23:37:11.740Z,92.30
2018-10-16T23:40:15.810Z,92.40
2018-10-16T23:43:20.002Z,92.40
2018-10-16T23:46:24.066Z,92.70
2018-10-16T23:49:28.187Z,92.20
2018-10-16T23:52:32.310Z,91.90
2018-10-16T23:55:36.446Z,91.70
2018-10-16T23:58:40.559Z,91.70
